sensor_id;sensor_type;location;lat;lon;timestamp;temperature;humidity
18384;DHT22;9318;48.644;9.456;2023-05-07T00:01:22;13.40;99.90
18384;DHT22;9318;48.644;9.456;2023-05-07T00:03:48;13.40;99.90
18384;DHT22;9318;48.644;9.456;2023-05-07T00:06:16;13.40;99.90
18384;DHT22;9318;48.644;9.456;2023-05-07T00:08:43;13.40;99.90
18384;DHT22;9318;48.644;9.456;2023-05-07T00:11:10;13.30;99.90
18384;DHT22;9318;48.644;9.456;2023-05-07T00:13:37;13.30;99.90
18384;DHT22;9318;48.644;9.456;2023-05-07T00:16:04;13.30;99.90
18384;DHT22;9318;48.644;9.456;2023-05-07T00:18:31;13.20;99.90
18384;DHT22;9318;48.644;9.456;2023-05-07T00:20:57;13.20;99.90
18384;DHT22;9318;48.644;9.456;2023-05-07T00:23:26;13.10;99.90
18384;DHT22;9318;48.644;9.456;2023-05-07T00:25:52;13.10;99.90
18384;DHT22;9318;48.644;9.456;2023-05-07T00:28:19;13.10;99.90
18384;DHT22;9318;48.644;9.456;2023-05-07T00:30:46;13.10;99.90
18384;DHT22;9318;48.644;9.456;2023-05-07T00:33:13;13.10;99.90
18384;DHT22;9318;48.644;9.456;2023-05-07T00:35:40;13.00;99.90
18384;DHT22;9318;48.644;9.456;2023-05-07T00:38:06;13.00;99.90
18384;DHT22;9318;48.644;9.456;2023-05-07T00:40:34;13.00;99.90
18384;DHT22;9318;48.644;9.456;2023-05-07T00:43:01;13.00;99.90
18384;DHT22;9318;48.644;9.456;2023-05-07T00:45:28;12.90;99.90
18384;DHT22;9318;48.644;9.456;2023-05-07T00:47:57;12.90;99.90
18384;DHT22;9318;48.644;9.456;2023-05-07T00:50:25;12.80;99.90
18384;DHT22;9318;48.644;9.456;2023-05-07T00:52:52;12.80;99.90
18384;DHT22;9318;48.644;9.456;2023-05-07T00:55:21;12.80;99.90
18384;DHT22;9318;48.644;9.456;2023-05-07T00:57:50;12.80;99.90
18384;DHT22;9318;48.644;9.456;2023-05-07T01:00:17;12.80;99.90
18384;DHT22;9318;48.644;9.456;2023-05-07T01:02:45;12.70;99.90
18384;DHT22;9318;48.644;9.456;2023-05-07T01:05:14;12.60;99.90
18384;DHT22;9318;48.644;9.456;2023-05-07T01:07:42;12.60;99.90
18384;DHT22;9318;48.644;9.456;2023-05-07T01:10:10;12.60;99.90
18384;DHT22;9318;48.644;9.456;2023-05-07T01:12:39;12.60;99.90
18384;DHT22;9318;48.644;9.456;2023-05-07T01:15:09;12.50;99.90
18384;DHT22;9318;48.644;9.456;2023-05-07T01:17:36;12.50;99.90
18384;DHT22;9318;48.644;9.456;2023-05-07T01:20:04;12.50;99.90
18384;DHT22;9318;48.644;9.456;2023-05-07T01:22:34;12.50;99.90
18384;DHT22;9318;48.644;9.456;2023-05-07T01:25:03;12.50;99.90
18384;DHT22;9318;48.644;9.456;2023-05-07T01:27:30;12.40;99.90
18384;DHT22;9318;48.644;9.456;2023-05-07T01:29:58;12.40;99.90
18384;DHT22;9318;48.644;9.456;2023-05-07T01:32:29;12.40;99.90
18384;DHT22;9318;48.644;9.456;2023-05-07T01:34:56;12.40;99.90
18384;DHT22;9318;48.644;9.456;2023-05-07T01:37:25;12.30;99.90
18384;DHT22;9318;48.644;9.456;2023-05-07T01:39:54;12.30;99.90
18384;DHT22;9318;48.644;9.456;2023-05-07T01:42:21;12.30;99.90
18384;DHT22;9318;48.644;9.456;2023-05-07T01:44:48;12.20;99.90
18384;DHT22;9318;48.644;9.456;2023-05-07T01:47:16;12.20;99.90
18384;DHT22;9318;48.644;9.456;2023-05-07T01:49:43;12.20;99.90
18384;DHT22;9318;48.644;9.456;2023-05-07T01:52:10;12.10;99.90
18384;DHT22;9318;48.644;9.456;2023-05-07T01:54:37;12.10;99.90
18384;DHT22;9318;48.644;9.456;2023-05-07T01:57:06;12.10;99.90
18384;DHT22;9318;48.644;9.456;2023-05-07T01:59:32;12.00;99.90
18384;DHT22;9318;48.644;9.456;2023-05-07T02:01:59;12.00;99.90
18384;DHT22;9318;48.644;9.456;2023-05-07T02:04:26;11.90;99.90
18384;DHT22;9318;48.644;9.456;2023-05-07T02:06:52;11.90;99.90
18384;DHT22;9318;48.644;9.456;2023-05-07T02:09:19;11.80;99.90
18384;DHT22;9318;48.644;9.456;2023-05-07T02:11:46;11.80;99.90
18384;DHT22;9318;48.644;9.456;2023-05-07T02:14:14;11.70;99.90
18384;DHT22;9318;48.644;9.456;2023-05-07T02:16:41;11.70;99.90
18384;DHT22;9318;48.644;9.456;2023-05-07T02:19:08;11.80;99.90
18384;DHT22;9318;48.644;9.456;2023-05-07T02:21:34;11.80;99.90
18384;DHT22;9318;48.644;9.456;2023-05-07T02:24:01;11.80;99.90
18384;DHT22;9318;48.644;9.456;2023-05-07T02:26:28;11.80;99.90
18384;DHT22;9318;48.644;9.456;2023-05-07T02:28:55;11.80;99.90
18384;DHT22;9318;48.644;9.456;2023-05-07T02:31:23;11.80;99.90
18384;DHT22;9318;48.644;9.456;2023-05-07T02:33:49;11.80;99.90
18384;DHT22;9318;48.644;9.456;2023-05-07T02:36:16;11.80;99.90
18384;DHT22;9318;48.644;9.456;2023-05-07T02:38:43;11.80;99.90
18384;DHT22;9318;48.644;9.456;2023-05-07T02:41:10;11.70;99.90
18384;DHT22;9318;48.644;9.456;2023-05-07T02:43:36;11.60;99.90
18384;DHT22;9318;48.644;9.456;2023-05-07T02:46:03;11.60;99.90
18384;DHT22;9318;48.644;9.456;2023-05-07T02:48:32;11.50;99.90
18384;DHT22;9318;48.644;9.456;2023-05-07T02:50:59;11.50;99.90
18384;DHT22;9318;48.644;9.456;2023-05-07T02:53:26;11.40;99.90
18384;DHT22;9318;48.644;9.456;2023-05-07T02:55:55;11.30;99.90
18384;DHT22;9318;48.644;9.456;2023-05-07T02:58:23;11.30;99.90
18384;DHT22;9318;48.644;9.456;2023-05-07T03:00:50;11.40;99.90
18384;DHT22;9318;48.644;9.456;2023-05-07T03:03:17;11.30;99.90
18384;DHT22;9318;48.644;9.456;2023-05-07T03:05:45;11.30;99.90
18384;DHT22;9318;48.644;9.456;2023-05-07T03:08:11;11.30;99.90
18384;DHT22;9318;48.644;9.456;2023-05-07T03:10:38;11.30;99.90
18384;DHT22;9318;48.644;9.456;2023-05-07T03:13:05;11.20;99.90
18384;DHT22;9318;48.644;9.456;2023-05-07T03:15:32;11.10;99.90
18384;DHT22;9318;48.644;9.456;2023-05-07T03:17:58;11.10;99.90
18384;DHT22;9318;48.644;9.456;2023-05-07T03:20:25;11.10;99.90
18384;DHT22;9318;48.644;9.456;2023-05-07T03:22:53;11.00;99.90
18384;DHT22;9318;48.644;9.456;2023-05-07T03:25:20;11.00;99.90
18384;DHT22;9318;48.644;9.456;2023-05-07T03:27:47;11.00;99.90
18384;DHT22;9318;48.644;9.456;2023-05-07T03:30:14;11.00;99.90
18384;DHT22;9318;48.644;9.456;2023-05-07T03:32:40;11.10;99.90
18384;DHT22;9318;48.644;9.456;2023-05-07T03:35:07;11.00;99.90
18384;DHT22;9318;48.644;9.456;2023-05-07T03:37:34;11.00;99.90
18384;DHT22;9318;48.644;9.456;2023-05-07T03:40:02;11.00;99.90
18384;DHT22;9318;48.644;9.456;2023-05-07T03:42:29;10.90;99.90
18384;DHT22;9318;48.644;9.456;2023-05-07T03:44:56;10.90;99.90
18384;DHT22;9318;48.644;9.456;2023-05-07T03:47:23;10.80;99.90
18384;DHT22;9318;48.644;9.456;2023-05-07T03:49:49;10.80;99.90
18384;DHT22;9318;48.644;9.456;2023-05-07T03:52:18;10.70;99.90
18384;DHT22;9318;48.644;9.456;2023-05-07T03:54:49;10.70;99.90
18384;DHT22;9318;48.644;9.456;2023-05-07T03:57:17;10.70;99.90
18384;DHT22;9318;48.644;9.456;2023-05-07T03:59:43;10.70;99.90
18384;DHT22;9318;48.644;9.456;2023-05-07T04:02:10;10.60;99.90
18384;DHT22;9318;48.644;9.456;2023-05-07T04:04:37;10.70;99.90
18384;DHT22;9318;48.644;9.456;2023-05-07T04:07:04;10.60;99.90
18384;DHT22;9318;48.644;9.456;2023-05-07T04:09:30;10.70;99.90
18384;DHT22;9318;48.644;9.456;2023-05-07T04:11:57;10.70;99.90
18384;DHT22;9318;48.644;9.456;2023-05-07T04:14:25;10.70;99.90
18384;DHT22;9318;48.644;9.456;2023-05-07T04:16:52;10.80;99.90
18384;DHT22;9318;48.644;9.456;2023-05-07T04:19:18;10.90;99.90
18384;DHT22;9318;48.644;9.456;2023-05-07T04:21:45;10.90;99.90
18384;DHT22;9318;48.644;9.456;2023-05-07T04:24:12;10.90;99.90
18384;DHT22;9318;48.644;9.456;2023-05-07T04:26:39;10.90;99.90
18384;DHT22;9318;48.644;9.456;2023-05-07T04:29:06;10.90;99.90
18384;DHT22;9318;48.644;9.456;2023-05-07T04:31:34;11.00;99.90
18384;DHT22;9318;48.644;9.456;2023-05-07T04:34:01;11.00;99.90
18384;DHT22;9318;48.644;9.456;2023-05-07T04:36:27;11.00;99.90
18384;DHT22;9318;48.644;9.456;2023-05-07T04:38:55;11.00;99.90
18384;DHT22;9318;48.644;9.456;2023-05-07T04:41:21;11.10;99.90
18384;DHT22;9318;48.644;9.456;2023-05-07T04:43:48;11.10;99.90
18384;DHT22;9318;48.644;9.456;2023-05-07T04:46:15;11.20;99.90
18384;DHT22;9318;48.644;9.456;2023-05-07T04:48:43;11.30;99.90
18384;DHT22;9318;48.644;9.456;2023-05-07T04:51:09;11.30;99.90
18384;DHT22;9318;48.644;9.456;2023-05-07T04:53:37;11.40;99.90
18384;DHT22;9318;48.644;9.456;2023-05-07T04:56:04;11.50;99.90
18384;DHT22;9318;48.644;9.456;2023-05-07T04:58:31;11.60;99.90
18384;DHT22;9318;48.644;9.456;2023-05-07T05:00:58;11.70;99.90
18384;DHT22;9318;48.644;9.456;2023-05-07T05:03:25;11.80;99.90
18384;DHT22;9318;48.644;9.456;2023-05-07T05:05:53;11.80;99.90
18384;DHT22;9318;48.644;9.456;2023-05-07T05:08:20;11.90;99.90
18384;DHT22;9318;48.644;9.456;2023-05-07T05:10:47;11.90;99.90
18384;DHT22;9318;48.644;9.456;2023-05-07T05:13:15;11.90;99.90
18384;DHT22;9318;48.644;9.456;2023-05-07T05:15:42;11.90;99.90
18384;DHT22;9318;48.644;9.456;2023-05-07T05:18:08;12.00;99.90
18384;DHT22;9318;48.644;9.456;2023-05-07T05:20:35;12.10;99.90
18384;DHT22;9318;48.644;9.456;2023-05-07T05:23:03;12.20;99.90
18384;DHT22;9318;48.644;9.456;2023-05-07T05:25:31;12.20;99.90
18384;DHT22;9318;48.644;9.456;2023-05-07T05:27:58;12.20;99.90
18384;DHT22;9318;48.644;9.456;2023-05-07T05:30:24;12.20;99.90
18384;DHT22;9318;48.644;9.456;2023-05-07T05:32:51;12.20;99.90
18384;DHT22;9318;48.644;9.456;2023-05-07T05:35:18;12.20;99.90
18384;DHT22;9318;48.644;9.456;2023-05-07T05:37:45;12.20;99.90
18384;DHT22;9318;48.644;9.456;2023-05-07T05:40:13;12.50;99.90
18384;DHT22;9318;48.644;9.456;2023-05-07T05:42:40;12.90;99.90
18384;DHT22;9318;48.644;9.456;2023-05-07T05:45:08;13.40;99.90
18384;DHT22;9318;48.644;9.456;2023-05-07T05:47:35;14.30;99.90
18384;DHT22;9318;48.644;9.456;2023-05-07T05:50:01;14.60;99.90
18384;DHT22;9318;48.644;9.456;2023-05-07T05:52:28;15.20;99.90
18384;DHT22;9318;48.644;9.456;2023-05-07T05:54:55;16.00;99.90
18384;DHT22;9318;48.644;9.456;2023-05-07T05:57:23;16.60;99.90
18384;DHT22;9318;48.644;9.456;2023-05-07T05:59:50;16.60;99.90
18384;DHT22;9318;48.644;9.456;2023-05-07T06:02:17;16.20;99.90
18384;DHT22;9318;48.644;9.456;2023-05-07T06:04:44;15.80;99.90
18384;DHT22;9318;48.644;9.456;2023-05-07T06:07:10;15.90;99.90
18384;DHT22;9318;48.644;9.456;2023-05-07T06:09:37;16.80;99.90
18384;DHT22;9318;48.644;9.456;2023-05-07T06:12:04;17.20;99.90
18384;DHT22;9318;48.644;9.456;2023-05-07T06:14:32;17.40;99.90
18384;DHT22;9318;48.644;9.456;2023-05-07T06:16:59;17.50;99.90
18384;DHT22;9318;48.644;9.456;2023-05-07T06:19:26;17.60;99.90
18384;DHT22;9318;48.644;9.456;2023-05-07T06:21:53;17.60;99.90
18384;DHT22;9318;48.644;9.456;2023-05-07T06:24:21;18.10;99.90
18384;DHT22;9318;48.644;9.456;2023-05-07T06:26:48;19.40;99.90
18384;DHT22;9318;48.644;9.456;2023-05-07T06:29:15;20.50;99.90
18384;DHT22;9318;48.644;9.456;2023-05-07T06:31:43;21.00;99.90
18384;DHT22;9318;48.644;9.456;2023-05-07T06:34:10;21.30;99.90
18384;DHT22;9318;48.644;9.456;2023-05-07T06:36:39;21.50;99.90
18384;DHT22;9318;48.644;9.456;2023-05-07T06:39:06;21.60;99.90
18384;DHT22;9318;48.644;9.456;2023-05-07T06:41:33;21.80;99.90
18384;DHT22;9318;48.644;9.456;2023-05-07T06:44:01;21.90;99.90
18384;DHT22;9318;48.644;9.456;2023-05-07T06:46:28;22.00;99.90
18384;DHT22;9318;48.644;9.456;2023-05-07T06:48:56;22.10;99.90
18384;DHT22;9318;48.644;9.456;2023-05-07T06:51:23;22.40;99.90
18384;DHT22;9318;48.644;9.456;2023-05-07T06:53:50;22.30;99.90
18384;DHT22;9318;48.644;9.456;2023-05-07T06:56:16;22.90;99.90
18384;DHT22;9318;48.644;9.456;2023-05-07T06:58:43;23.80;99.90
18384;DHT22;9318;48.644;9.456;2023-05-07T07:01:10;24.80;99.90
18384;DHT22;9318;48.644;9.456;2023-05-07T07:03:36;25.80;99.90
18384;DHT22;9318;48.644;9.456;2023-05-07T07:06:05;26.80;99.90
18384;DHT22;9318;48.644;9.456;2023-05-07T07:08:32;27.90;99.90
18384;DHT22;9318;48.644;9.456;2023-05-07T07:10:59;29.00;98.90
18384;DHT22;9318;48.644;9.456;2023-05-07T07:13:26;30.00;94.70
18384;DHT22;9318;48.644;9.456;2023-05-07T07:15:53;30.50;92.50
18384;DHT22;9318;48.644;9.456;2023-05-07T07:18:20;30.40;90.50
18384;DHT22;9318;48.644;9.456;2023-05-07T07:20:46;31.10;88.50
18384;DHT22;9318;48.644;9.456;2023-05-07T07:23:15;31.70;84.20
18384;DHT22;9318;48.644;9.456;2023-05-07T07:25:41;32.50;85.20
18384;DHT22;9318;48.644;9.456;2023-05-07T07:28:08;33.10;79.40
18384;DHT22;9318;48.644;9.456;2023-05-07T07:30:36;32.70;77.00
18384;DHT22;9318;48.644;9.456;2023-05-07T07:33:02;32.40;75.20
18384;DHT22;9318;48.644;9.456;2023-05-07T07:35:30;32.90;74.50
18384;DHT22;9318;48.644;9.456;2023-05-07T07:37:57;32.50;73.20
18384;DHT22;9318;48.644;9.456;2023-05-07T07:40:25;32.20;73.10
18384;DHT22;9318;48.644;9.456;2023-05-07T07:42:53;31.60;72.00
18384;DHT22;9318;48.644;9.456;2023-05-07T07:45:20;31.30;73.40
18384;DHT22;9318;48.644;9.456;2023-05-07T07:47:47;30.80;73.60
18384;DHT22;9318;48.644;9.456;2023-05-07T07:50:13;30.60;73.90
18384;DHT22;9318;48.644;9.456;2023-05-07T07:52:40;30.70;74.50
18384;DHT22;9318;48.644;9.456;2023-05-07T07:55:08;30.60;77.00
18384;DHT22;9318;48.644;9.456;2023-05-07T07:57:36;30.60;74.90
18384;DHT22;9318;48.644;9.456;2023-05-07T08:00:04;31.30;75.70
18384;DHT22;9318;48.644;9.456;2023-05-07T08:02:31;32.40;72.10
18384;DHT22;9318;48.644;9.456;2023-05-07T08:04:58;32.00;70.40
18384;DHT22;9318;48.644;9.456;2023-05-07T08:07:25;32.10;70.50
18384;DHT22;9318;48.644;9.456;2023-05-07T08:09:52;31.80;72.80
18384;DHT22;9318;48.644;9.456;2023-05-07T08:12:18;31.90;70.10
18384;DHT22;9318;48.644;9.456;2023-05-07T08:14:46;31.30;71.80
18384;DHT22;9318;48.644;9.456;2023-05-07T08:17:13;30.90;74.50
18384;DHT22;9318;48.644;9.456;2023-05-07T08:19:41;30.70;72.90
18384;DHT22;9318;48.644;9.456;2023-05-07T08:22:08;30.80;73.80
18384;DHT22;9318;48.644;9.456;2023-05-07T08:24:36;31.30;72.90
18384;DHT22;9318;48.644;9.456;2023-05-07T08:27:03;31.70;74.10
18384;DHT22;9318;48.644;9.456;2023-05-07T08:29:29;32.10;75.70
18384;DHT22;9318;48.644;9.456;2023-05-07T08:31:58;32.30;72.30
18384;DHT22;9318;48.644;9.456;2023-05-07T08:34:24;32.20;70.20
18384;DHT22;9318;48.644;9.456;2023-05-07T08:36:51;31.80;71.90
18384;DHT22;9318;48.644;9.456;2023-05-07T08:39:18;31.10;74.10
18384;DHT22;9318;48.644;9.456;2023-05-07T08:41:45;30.90;73.20
18384;DHT22;9318;48.644;9.456;2023-05-07T08:44:13;30.90;72.50
18384;DHT22;9318;48.644;9.456;2023-05-07T08:46:41;30.70;73.70
18384;DHT22;9318;48.644;9.456;2023-05-07T08:49:10;30.70;76.30
18384;DHT22;9318;48.644;9.456;2023-05-07T08:51:37;30.90;73.00
18384;DHT22;9318;48.644;9.456;2023-05-07T08:54:04;30.50;72.90
18384;DHT22;9318;48.644;9.456;2023-05-07T08:56:32;29.60;80.20
18384;DHT22;9318;48.644;9.456;2023-05-07T08:58:58;29.70;75.90
18384;DHT22;9318;48.644;9.456;2023-05-07T09:01:26;29.50;76.30
18384;DHT22;9318;48.644;9.456;2023-05-07T09:03:53;29.90;76.00
18384;DHT22;9318;48.644;9.456;2023-05-07T09:06:21;30.10;73.80
18384;DHT22;9318;48.644;9.456;2023-05-07T09:08:52;29.90;74.00
18384;DHT22;9318;48.644;9.456;2023-05-07T09:11:23;30.10;74.60
18384;DHT22;9318;48.644;9.456;2023-05-07T09:13:54;30.70;75.50
18384;DHT22;9318;48.644;9.456;2023-05-07T09:16:22;31.50;72.10
18384;DHT22;9318;48.644;9.456;2023-05-07T09:18:51;32.50;70.90
18384;DHT22;9318;48.644;9.456;2023-05-07T09:21:20;32.70;69.00
18384;DHT22;9318;48.644;9.456;2023-05-07T09:23:49;33.20;66.60
18384;DHT22;9318;48.644;9.456;2023-05-07T09:26:16;33.10;68.10
18384;DHT22;9318;48.644;9.456;2023-05-07T09:28:44;33.80;67.60
18384;DHT22;9318;48.644;9.456;2023-05-07T09:31:12;33.40;65.00
18384;DHT22;9318;48.644;9.456;2023-05-07T09:33:39;32.90;66.00
18384;DHT22;9318;48.644;9.456;2023-05-07T09:36:07;32.80;67.90
18384;DHT22;9318;48.644;9.456;2023-05-07T09:38:37;32.90;67.60
18384;DHT22;9318;48.644;9.456;2023-05-07T09:41:05;32.00;67.40
18384;DHT22;9318;48.644;9.456;2023-05-07T09:43:33;31.50;68.80
18384;DHT22;9318;48.644;9.456;2023-05-07T09:46:02;31.40;71.20
18384;DHT22;9318;48.644;9.456;2023-05-07T09:48:30;31.10;74.30
18384;DHT22;9318;48.644;9.456;2023-05-07T09:51:00;30.30;75.30
18384;DHT22;9318;48.644;9.456;2023-05-07T09:53:29;29.00;75.20
18384;DHT22;9318;48.644;9.456;2023-05-07T09:55:58;28.10;79.20
18384;DHT22;9318;48.644;9.456;2023-05-07T09:58:26;27.60;78.60
18384;DHT22;9318;48.644;9.456;2023-05-07T10:00:53;27.10;78.70
18384;DHT22;9318;48.644;9.456;2023-05-07T10:03:22;26.70;80.10
18384;DHT22;9318;48.644;9.456;2023-05-07T10:05:50;26.30;82.00
18384;DHT22;9318;48.644;9.456;2023-05-07T10:08:18;26.20;85.90
18384;DHT22;9318;48.644;9.456;2023-05-07T10:10:45;26.10;84.30
18384;DHT22;9318;48.644;9.456;2023-05-07T10:13:14;25.70;83.80
18384;DHT22;9318;48.644;9.456;2023-05-07T10:15:41;25.50;85.40
18384;DHT22;9318;48.644;9.456;2023-05-07T10:18:08;25.40;85.00
18384;DHT22;9318;48.644;9.456;2023-05-07T10:20:36;25.30;85.10
18384;DHT22;9318;48.644;9.456;2023-05-07T10:23:04;25.00;86.20
18384;DHT22;9318;48.644;9.456;2023-05-07T10:25:32;24.60;89.20
18384;DHT22;9318;48.644;9.456;2023-05-07T10:28:02;24.70;89.60
18384;DHT22;9318;48.644;9.456;2023-05-07T10:30:39;24.80;90.00
18384;DHT22;9318;48.644;9.456;2023-05-07T10:33:10;24.90;88.40
18384;DHT22;9318;48.644;9.456;2023-05-07T10:35:42;24.70;88.10
18384;DHT22;9318;48.644;9.456;2023-05-07T10:38:10;24.60;91.70
18384;DHT22;9318;48.644;9.456;2023-05-07T10:40:37;24.60;90.70
18384;DHT22;9318;48.644;9.456;2023-05-07T10:43:05;24.60;91.50
18384;DHT22;9318;48.644;9.456;2023-05-07T10:45:33;24.50;91.20
18384;DHT22;9318;48.644;9.456;2023-05-07T10:48:07;24.40;87.90
18384;DHT22;9318;48.644;9.456;2023-05-07T10:50:34;24.40;91.10
18384;DHT22;9318;48.644;9.456;2023-05-07T10:53:22;24.30;91.90
18384;DHT22;9318;48.644;9.456;2023-05-07T10:56:25;24.30;92.10
18384;DHT22;9318;48.644;9.456;2023-05-07T10:58:56;24.30;92.00
18384;DHT22;9318;48.644;9.456;2023-05-07T11:01:52;24.30;91.60
18384;DHT22;9318;48.644;9.456;2023-05-07T11:04:19;24.10;91.20
18384;DHT22;9318;48.644;9.456;2023-05-07T11:07:21;23.90;91.50
18384;DHT22;9318;48.644;9.456;2023-05-07T11:10:03;23.80;91.60
18384;DHT22;9318;48.644;9.456;2023-05-07T11:12:53;23.80;92.90
18384;DHT22;9318;48.644;9.456;2023-05-07T11:15:50;24.00;91.80
18384;DHT22;9318;48.644;9.456;2023-05-07T11:18:18;24.00;92.90
18384;DHT22;9318;48.644;9.456;2023-05-07T11:20:48;24.10;93.50
18384;DHT22;9318;48.644;9.456;2023-05-07T11:23:56;24.30;93.20
18384;DHT22;9318;48.644;9.456;2023-05-07T11:26:24;24.30;91.80
18384;DHT22;9318;48.644;9.456;2023-05-07T11:28:51;24.30;90.70
18384;DHT22;9318;48.644;9.456;2023-05-07T11:31:21;24.40;91.80
18384;DHT22;9318;48.644;9.456;2023-05-07T11:33:51;24.40;90.50
18384;DHT22;9318;48.644;9.456;2023-05-07T11:36:18;24.30;91.20
18384;DHT22;9318;48.644;9.456;2023-05-07T11:38:46;24.20;91.20
18384;DHT22;9318;48.644;9.456;2023-05-07T11:41:13;24.20;90.90
18384;DHT22;9318;48.644;9.456;2023-05-07T11:43:54;24.10;88.70
18384;DHT22;9318;48.644;9.456;2023-05-07T11:46:21;23.90;89.40
18384;DHT22;9318;48.644;9.456;2023-05-07T11:48:49;23.90;90.70
18384;DHT22;9318;48.644;9.456;2023-05-07T11:51:19;23.90;89.00
18384;DHT22;9318;48.644;9.456;2023-05-07T11:53:46;23.80;88.10
18384;DHT22;9318;48.644;9.456;2023-05-07T11:56:14;23.90;90.00
18384;DHT22;9318;48.644;9.456;2023-05-07T11:58:42;23.90;90.20
18384;DHT22;9318;48.644;9.456;2023-05-07T12:01:11;23.80;90.60
18384;DHT22;9318;48.644;9.456;2023-05-07T12:03:40;23.70;90.80
18384;DHT22;9318;48.644;9.456;2023-05-07T12:06:10;23.80;92.40
18384;DHT22;9318;48.644;9.456;2023-05-07T12:08:39;23.90;95.10
18384;DHT22;9318;48.644;9.456;2023-05-07T12:11:11;23.90;93.30
18384;DHT22;9318;48.644;9.456;2023-05-07T12:13:39;24.00;91.70
18384;DHT22;9318;48.644;9.456;2023-05-07T12:16:06;24.00;89.60
18384;DHT22;9318;48.644;9.456;2023-05-07T12:18:34;23.90;91.10
18384;DHT22;9318;48.644;9.456;2023-05-07T12:21:02;23.90;91.90
18384;DHT22;9318;48.644;9.456;2023-05-07T12:23:30;24.00;93.80
18384;DHT22;9318;48.644;9.456;2023-05-07T12:25:57;23.90;91.50
18384;DHT22;9318;48.644;9.456;2023-05-07T12:28:25;23.90;91.30
18384;DHT22;9318;48.644;9.456;2023-05-07T12:30:52;23.90;90.30
18384;DHT22;9318;48.644;9.456;2023-05-07T12:33:24;23.90;92.40
18384;DHT22;9318;48.644;9.456;2023-05-07T12:35:54;23.70;94.50
18384;DHT22;9318;48.644;9.456;2023-05-07T12:38:21;23.60;90.30
18384;DHT22;9318;48.644;9.456;2023-05-07T12:40:50;23.50;92.00
18384;DHT22;9318;48.644;9.456;2023-05-07T12:43:18;23.30;93.60
18384;DHT22;9318;48.644;9.456;2023-05-07T12:45:45;23.20;95.70
18384;DHT22;9318;48.644;9.456;2023-05-07T12:48:13;23.20;95.30
18384;DHT22;9318;48.644;9.456;2023-05-07T12:50:40;23.10;96.70
18384;DHT22;9318;48.644;9.456;2023-05-07T12:53:07;23.10;98.20
18384;DHT22;9318;48.644;9.456;2023-05-07T12:55:41;22.90;98.30
18384;DHT22;9318;48.644;9.456;2023-05-07T12:58:14;22.70;98.30
18384;DHT22;9318;48.644;9.456;2023-05-07T13:00:42;22.50;99.60
18384;DHT22;9318;48.644;9.456;2023-05-07T13:03:09;22.20;99.90
18384;DHT22;9318;48.644;9.456;2023-05-07T13:05:36;21.70;99.30
18384;DHT22;9318;48.644;9.456;2023-05-07T13:08:03;21.20;99.90
18384;DHT22;9318;48.644;9.456;2023-05-07T13:10:30;20.80;99.90
18384;DHT22;9318;48.644;9.456;2023-05-07T13:12:58;20.40;99.90
18384;DHT22;9318;48.644;9.456;2023-05-07T13:15:26;20.10;99.90
18384;DHT22;9318;48.644;9.456;2023-05-07T13:17:53;19.80;99.90
18384;DHT22;9318;48.644;9.456;2023-05-07T13:20:20;19.50;99.90
18384;DHT22;9318;48.644;9.456;2023-05-07T13:22:47;19.30;99.90
18384;DHT22;9318;48.644;9.456;2023-05-07T13:25:14;19.00;99.90
18384;DHT22;9318;48.644;9.456;2023-05-07T13:27:40;18.80;99.90
18384;DHT22;9318;48.644;9.456;2023-05-07T13:30:07;18.50;99.90
18384;DHT22;9318;48.644;9.456;2023-05-07T13:32:35;18.20;99.90
18384;DHT22;9318;48.644;9.456;2023-05-07T13:35:02;18.00;99.90
18384;DHT22;9318;48.644;9.456;2023-05-07T13:37:30;17.70;99.90
18384;DHT22;9318;48.644;9.456;2023-05-07T13:39:56;17.40;99.90
18384;DHT22;9318;48.644;9.456;2023-05-07T13:42:23;17.10;99.90
18384;DHT22;9318;48.644;9.456;2023-05-07T13:44:50;16.90;99.90
18384;DHT22;9318;48.644;9.456;2023-05-07T13:47:16;16.80;99.90
18384;DHT22;9318;48.644;9.456;2023-05-07T13:49:45;16.50;99.90
18384;DHT22;9318;48.644;9.456;2023-05-07T13:52:11;16.30;99.90
18384;DHT22;9318;48.644;9.456;2023-05-07T13:54:38;16.20;99.90
18384;DHT22;9318;48.644;9.456;2023-05-07T13:57:05;16.20;99.90
18384;DHT22;9318;48.644;9.456;2023-05-07T13:59:33;16.10;99.90
18384;DHT22;9318;48.644;9.456;2023-05-07T14:02:00;16.10;99.90
18384;DHT22;9318;48.644;9.456;2023-05-07T14:04:27;16.20;99.90
18384;DHT22;9318;48.644;9.456;2023-05-07T14:06:55;16.20;99.90
18384;DHT22;9318;48.644;9.456;2023-05-07T14:09:21;16.10;99.90
18384;DHT22;9318;48.644;9.456;2023-05-07T14:11:48;16.00;99.90
18384;DHT22;9318;48.644;9.456;2023-05-07T14:14:16;15.90;99.90
18384;DHT22;9318;48.644;9.456;2023-05-07T14:16:43;15.90;99.90
18384;DHT22;9318;48.644;9.456;2023-05-07T14:19:10;15.90;99.90
18384;DHT22;9318;48.644;9.456;2023-05-07T14:21:37;15.90;99.90
18384;DHT22;9318;48.644;9.456;2023-05-07T14:24:06;15.80;99.90
18384;DHT22;9318;48.644;9.456;2023-05-07T14:26:33;15.80;99.90
18384;DHT22;9318;48.644;9.456;2023-05-07T14:29:00;15.80;99.90
18384;DHT22;9318;48.644;9.456;2023-05-07T14:31:26;15.90;99.90
18384;DHT22;9318;48.644;9.456;2023-05-07T14:33:53;15.90;99.90
18384;DHT22;9318;48.644;9.456;2023-05-07T14:36:20;15.90;99.90
18384;DHT22;9318;48.644;9.456;2023-05-07T14:38:48;16.00;99.90
18384;DHT22;9318;48.644;9.456;2023-05-07T14:41:16;16.00;99.90
18384;DHT22;9318;48.644;9.456;2023-05-07T14:43:43;16.10;99.90
18384;DHT22;9318;48.644;9.456;2023-05-07T14:46:15;16.10;99.90
18384;DHT22;9318;48.644;9.456;2023-05-07T14:48:43;16.10;99.90
18384;DHT22;9318;48.644;9.456;2023-05-07T14:51:09;16.10;99.90
18384;DHT22;9318;48.644;9.456;2023-05-07T14:53:36;16.10;99.90
18384;DHT22;9318;48.644;9.456;2023-05-07T14:56:03;16.10;99.90
18384;DHT22;9318;48.644;9.456;2023-05-07T14:58:32;16.10;99.90
18384;DHT22;9318;48.644;9.456;2023-05-07T15:00:59;16.10;99.90
18384;DHT22;9318;48.644;9.456;2023-05-07T15:03:26;16.00;99.90
18384;DHT22;9318;48.644;9.456;2023-05-07T15:05:53;16.00;99.90
18384;DHT22;9318;48.644;9.456;2023-05-07T15:08:20;16.00;99.90
18384;DHT22;9318;48.644;9.456;2023-05-07T15:10:47;16.00;99.90
18384;DHT22;9318;48.644;9.456;2023-05-07T15:13:14;16.00;99.90
18384;DHT22;9318;48.644;9.456;2023-05-07T15:15:42;16.00;99.90
18384;DHT22;9318;48.644;9.456;2023-05-07T15:18:10;16.00;99.90
18384;DHT22;9318;48.644;9.456;2023-05-07T15:20:36;16.00;99.90
18384;DHT22;9318;48.644;9.456;2023-05-07T15:23:03;16.00;99.90
18384;DHT22;9318;48.644;9.456;2023-05-07T15:25:31;15.90;99.90
18384;DHT22;9318;48.644;9.456;2023-05-07T15:27:59;15.90;99.90
18384;DHT22;9318;48.644;9.456;2023-05-07T15:30:25;15.80;99.90
18384;DHT22;9318;48.644;9.456;2023-05-07T15:32:54;15.80;99.90
18384;DHT22;9318;48.644;9.456;2023-05-07T15:35:21;15.80;99.90
18384;DHT22;9318;48.644;9.456;2023-05-07T15:37:48;15.80;99.90
18384;DHT22;9318;48.644;9.456;2023-05-07T15:40:16;15.80;99.90
18384;DHT22;9318;48.644;9.456;2023-05-07T15:42:45;15.70;99.90
18384;DHT22;9318;48.644;9.456;2023-05-07T15:45:13;15.70;99.90
18384;DHT22;9318;48.644;9.456;2023-05-07T15:47:39;15.70;99.90
18384;DHT22;9318;48.644;9.456;2023-05-07T15:50:09;15.80;99.90